createdAt,value
2022-11-14T00:01:21.404Z,71.35
2022-11-14T00:03:51.388Z,72.43
2022-11-14T00:06:21.403Z,78.20
2022-11-14T00:08:49.395Z,69.40
2022-11-14T00:11:17.402Z,68.50
2022-11-14T00:13:46.387Z,68.32
2022-11-14T00:16:14.412Z,74.70
2022-11-14T00:18:42.794Z,65.85
2022-11-14T00:21:10.832Z,63.00
2022-11-14T00:23:40.204Z,72.63
2022-11-14T00:26:08.469Z,72.47
2022-11-14T00:28:36.515Z,69.70
2022-11-14T00:31:04.466Z,69.63
2022-11-14T00:33:32.464Z,72.93
2022-11-14T00:36:00.584Z,67.80
2022-11-14T00:38:28.955Z,66.53
2022-11-14T00:40:58.582Z,62.30
2022-11-14T00:43:26.558Z,66.00
2022-11-14T00:45:54.660Z,69.95
2022-11-14T00:48:22.848Z,70.45
2022-11-14T00:50:50.869Z,65.10
2022-11-14T00:53:18.854Z,64.35
2022-11-14T00:55:46.872Z,63.95
2022-11-14T00:58:16.269Z,72.85
2022-11-14T01:00:44.301Z,69.78
2022-11-14T01:03:12.363Z,67.65
2022-11-14T01:05:45.363Z,66.60
2022-11-14T01:08:15.073Z,69.60
2022-11-14T01:10:44.233Z,69.68
2022-11-14T01:13:13.947Z,72.15
2022-11-14T01:15:45.633Z,73.00
2022-11-14T01:18:16.939Z,68.15
2022-11-14T01:20:46.988Z,70.50
2022-11-14T01:23:16.995Z,74.35
2022-11-14T01:25:45.392Z,68.82
2022-11-14T01:28:15.336Z,71.97
2022-11-14T01:30:44.933Z,80.53
2022-11-14T01:33:13.277Z,72.25
2022-11-14T01:35:42.106Z,69.72
2022-11-14T01:38:14.654Z,68.00
2022-11-14T01:40:44.126Z,72.40
2022-11-14T01:43:30.143Z,75.40
2022-11-14T01:46:02.117Z,71.45
2022-11-14T01:48:36.897Z,68.88
2022-11-14T01:51:16.126Z,70.82
2022-11-14T01:53:45.544Z,74.43
2022-11-14T01:56:17.446Z,73.35
2022-11-14T01:58:48.147Z,69.18
2022-11-14T02:01:17.600Z,70.97
2022-11-14T02:03:49.331Z,69.18
2022-11-14T02:06:20.564Z,72.93
2022-11-14T02:08:50.242Z,70.57
2022-11-14T02:13:47.240Z,70.65
2022-11-14T02:16:17.296Z,78.30
2022-11-14T02:18:45.681Z,70.45
2022-11-14T02:21:15.671Z,59.13
2022-11-14T02:23:43.787Z,70.97
2022-11-14T02:26:11.864Z,73.03
2022-11-14T02:28:39.916Z,73.40
2022-11-14T02:31:07.947Z,74.60
2022-11-14T02:33:35.976Z,72.97
2022-11-14T02:36:04.032Z,69.55
2022-11-14T02:38:33.412Z,76.45
2022-11-14T02:41:01.825Z,72.82
2022-11-14T02:43:30.174Z,74.50
2022-11-14T02:46:02.795Z,73.40
2022-11-14T02:48:33.372Z,69.07
2022-11-14T02:51:01.522Z,76.10
2022-11-14T02:53:29.534Z,69.35
2022-11-14T02:55:58.976Z,70.00
2022-11-14T02:58:27.166Z,71.22
2022-11-14T03:01:19.086Z,68.88
2022-11-14T03:03:43.376Z,70.50
2022-11-14T03:06:11.404Z,64.38
2022-11-14T03:08:39.396Z,69.85
2022-11-14T03:11:10.434Z,71.50
2022-11-14T03:13:38.466Z,75.60
2022-11-14T03:16:08.304Z,73.95
2022-11-14T03:18:36.919Z,70.50
2022-11-14T03:21:08.631Z,78.60
2022-11-14T03:23:36.823Z,72.15
2022-11-14T03:26:07.053Z,71.80
2022-11-14T03:28:36.876Z,71.78
2022-11-14T03:31:05.527Z,69.57
2022-11-14T03:33:34.076Z,69.80
2022-11-14T03:36:02.859Z,71.55
2022-11-14T03:38:31.454Z,72.65
2022-11-14T03:41:00.652Z,73.53
2022-11-14T03:43:33.081Z,68.32
2022-11-14T03:46:04.067Z,76.38
2022-11-14T03:48:33.021Z,70.68
2022-11-14T03:51:01.207Z,73.68
2022-11-14T03:53:29.330Z,72.13
2022-11-14T03:55:57.322Z,67.38
2022-11-14T03:58:25.371Z,70.10
2022-11-14T04:00:53.420Z,75.32
2022-11-14T04:03:22.881Z,72.78
2022-11-14T04:05:51.424Z,67.63
2022-11-14T04:08:19.462Z,74.38
2022-11-14T04:10:48.674Z,68.60
2022-11-14T04:13:17.019Z,66.78
2022-11-14T04:15:45.054Z,70.15
2022-11-14T04:18:13.178Z,63.85
2022-11-14T04:20:42.590Z,72.10
2022-11-14T04:23:10.574Z,68.68
2022-11-14T04:25:38.551Z,68.78
2022-11-14T04:28:06.564Z,68.35
2022-11-14T04:30:34.947Z,74.30
2022-11-14T04:33:03.099Z,64.05
2022-11-14T04:35:31.106Z,66.28
2022-11-14T04:38:00.494Z,74.30
2022-11-14T04:40:28.490Z,68.78
2022-11-14T04:42:56.574Z,70.90
2022-11-14T04:45:24.681Z,70.32
2022-11-14T04:47:52.784Z,65.57
2022-11-14T04:50:20.852Z,68.70
2022-11-14T04:52:52.040Z,75.25
2022-11-14T04:55:21.428Z,64.60
2022-11-14T04:57:54.081Z,71.35
2022-11-14T05:00:22.449Z,71.20
2022-11-14T05:02:50.488Z,78.18
2022-11-14T05:05:18.796Z,74.30
2022-11-14T05:07:46.776Z,71.60
2022-11-14T05:10:15.204Z,69.70
2022-11-14T05:12:44.581Z,70.03
2022-11-14T05:15:12.617Z,72.63
2022-11-14T05:17:40.606Z,71.63
2022-11-14T05:20:09.502Z,70.30
2022-11-14T05:22:37.476Z,73.80
2022-11-14T05:25:06.019Z,76.53
2022-11-14T05:27:34.081Z,74.10
2022-11-14T05:30:03.467Z,59.95
2022-11-14T05:32:31.427Z,68.18
2022-11-14T05:34:59.421Z,59.10
2022-11-14T05:37:27.410Z,65.50
2022-11-14T05:39:55.415Z,61.40
2022-11-14T05:42:23.424Z,64.00
2022-11-14T05:44:51.606Z,64.03
2022-11-14T05:47:21.105Z,57.17
2022-11-14T05:52:16.939Z,63.95
2022-11-14T05:54:44.907Z,67.68
2022-11-14T05:57:13.164Z,69.40
2022-11-14T05:59:41.145Z,69.70
2022-11-14T06:02:09.231Z,58.45
2022-11-14T06:04:38.828Z,69.65
2022-11-14T06:09:34.918Z,64.28
2022-11-14T06:12:06.048Z,53.15
2022-11-14T06:14:34.057Z,62.25
2022-11-14T06:17:02.223Z,62.90
2022-11-14T06:19:30.248Z,60.60
2022-11-14T06:21:59.598Z,66.43
2022-11-14T06:24:27.580Z,62.53
2022-11-14T06:26:55.536Z,64.97
2022-11-14T06:29:23.534Z,63.67
2022-11-14T06:31:51.543Z,61.10
2022-11-14T06:34:19.528Z,61.58
2022-11-14T06:36:47.532Z,62.92
2022-11-14T06:39:16.864Z,67.53
2022-11-14T06:41:44.879Z,58.25
2022-11-14T06:44:14.946Z,67.80
2022-11-14T06:46:42.912Z,61.75
2022-11-14T06:49:10.962Z,65.13
2022-11-14T06:51:38.976Z,58.30
2022-11-14T06:54:07.059Z,55.95
2022-11-14T06:56:36.671Z,57.83
2022-11-14T07:01:32.617Z,60.65
2022-11-14T07:04:02.262Z,61.80
2022-11-14T07:08:59.900Z,59.97
2022-11-14T07:11:29.621Z,58.78
2022-11-14T07:14:01.349Z,58.03
2022-11-14T07:16:31.331Z,59.05
2022-11-14T07:19:00.129Z,57.25
2022-11-14T07:21:29.693Z,60.42
2022-11-14T07:26:25.990Z,62.72
2022-11-14T07:28:59.252Z,54.88
2022-11-14T07:31:31.647Z,56.05
2022-11-14T07:33:59.664Z,57.25
2022-11-14T07:36:27.702Z,52.53
2022-11-14T07:38:55.904Z,59.33
2022-11-14T07:41:23.915Z,53.65
2022-11-14T07:43:51.975Z,49.92
2022-11-14T07:46:19.980Z,49.10
2022-11-14T07:48:49.305Z,47.40
2022-11-14T07:51:19.604Z,47.30
2022-11-14T07:53:47.740Z,48.00
2022-11-14T07:56:17.068Z,52.30
2022-11-14T07:58:45.088Z,48.97
2022-11-14T08:01:14.478Z,52.55
2022-11-14T08:03:45.986Z,48.22
2022-11-14T08:06:16.960Z,48.28
2022-11-14T08:08:44.964Z,49.22
2022-11-14T08:11:15.032Z,46.65
2022-11-14T08:13:47.811Z,46.35
2022-11-14T08:16:15.794Z,53.47
2022-11-14T08:18:43.771Z,65.90
2022-11-14T08:21:11.783Z,67.30
2022-11-14T08:23:41.204Z,112.45
2022-11-14T08:26:09.200Z,66.70
2022-11-14T08:28:37.240Z,67.15
2022-11-14T08:31:06.175Z,41.00
2022-11-14T08:33:34.229Z,41.72
2022-11-14T08:36:02.965Z,42.15
2022-11-14T08:38:32.873Z,38.17
2022-11-14T08:41:03.054Z,39.45
2022-11-14T08:43:31.367Z,36.13
2022-11-14T08:46:01.743Z,39.80
2022-11-14T08:48:30.900Z,63.42
2022-11-14T08:50:59.456Z,39.92
2022-11-14T08:53:27.434Z,39.53
2022-11-14T08:55:55.440Z,37.05
2022-11-14T08:58:24.933Z,38.70
2022-11-14T09:03:20.857Z,40.47
2022-11-14T09:05:52.687Z,37.80
2022-11-14T09:08:21.042Z,38.97
2022-11-14T09:10:49.233Z,38.60
2022-11-14T09:13:17.290Z,38.72
2022-11-14T09:15:46.780Z,37.00
2022-11-14T09:20:43.247Z,36.22
2022-11-14T09:23:11.671Z,35.88
2022-11-14T09:25:39.666Z,35.03
2022-11-14T09:28:08.953Z,34.97
2022-11-14T09:30:37.943Z,39.63
2022-11-14T09:33:11.635Z,26.95
2022-11-14T09:35:40.143Z,35.53
2022-11-14T09:38:09.749Z,34.78
2022-11-14T09:43:23.829Z,47.78
2022-11-14T09:45:53.655Z,49.75
2022-11-14T09:48:27.400Z,32.53
2022-11-14T09:51:08.131Z,33.80
2022-11-14T09:53:44.001Z,48.17
2022-11-14T09:56:14.448Z,31.33
2022-11-14T09:58:43.088Z,35.25
2022-11-14T10:01:18.876Z,28.00
2022-11-14T10:03:54.773Z,28.13
2022-11-14T10:06:29.076Z,26.08
2022-11-14T10:09:30.577Z,27.15
2022-11-14T10:12:06.545Z,26.50
2022-11-14T10:14:51.928Z,26.10
2022-11-14T10:17:37.167Z,26.67
2022-11-14T10:20:18.357Z,25.58
2022-11-14T10:23:12.102Z,25.80
2022-11-14T10:25:49.972Z,25.45
2022-11-14T10:28:43.414Z,24.50
2022-11-14T10:31:27.792Z,21.65
2022-11-14T10:34:02.051Z,20.83
2022-11-14T10:36:48.223Z,21.25
2022-11-14T10:39:21.296Z,24.23
2022-11-14T10:41:59.799Z,18.23
2022-11-14T10:44:37.934Z,17.88
2022-11-14T10:47:11.904Z,17.40
2022-11-14T10:49:40.988Z,18.15
2022-11-14T10:52:15.853Z,19.08
2022-11-14T10:54:48.526Z,16.20
2022-11-14T10:57:20.757Z,16.42
2022-11-14T10:59:48.996Z,15.95
2022-11-14T11:02:17.271Z,17.10
2022-11-14T11:04:46.346Z,15.50
2022-11-14T11:07:42.479Z,16.08
2022-11-14T11:10:40.000Z,17.23
2022-11-14T11:13:13.305Z,16.42
2022-11-14T11:15:42.724Z,17.83
2022-11-14T11:18:28.994Z,18.67
2022-11-14T11:21:07.987Z,20.27
2022-11-14T11:23:45.198Z,19.73
2022-11-14T11:26:19.728Z,18.35
2022-11-14T11:29:04.040Z,17.73
2022-11-14T11:31:51.473Z,19.42
2022-11-14T11:34:24.970Z,17.40
2022-11-14T11:36:58.537Z,18.13
2022-11-14T11:39:30.878Z,17.73
2022-11-14T11:42:09.400Z,18.00
2022-11-14T11:44:44.582Z,18.63
2022-11-14T11:47:17.130Z,18.80
2022-11-14T11:49:52.901Z,17.83
2022-11-14T11:52:28.931Z,18.30
2022-11-14T11:55:04.528Z,17.98
2022-11-14T11:57:36.251Z,17.63
2022-11-14T12:00:08.503Z,16.73
2022-11-14T12:02:43.490Z,17.30
2022-11-14T12:05:17.594Z,16.88
2022-11-14T12:07:52.544Z,17.67
2022-11-14T12:10:25.984Z,18.05
2022-11-14T12:13:24.099Z,17.70
2022-11-14T12:16:07.694Z,17.58
2022-11-14T12:19:00.756Z,15.70
2022-11-14T12:24:25.203Z,16.73
2022-11-14T12:27:12.868Z,17.73
2022-11-14T12:29:56.921Z,16.70
2022-11-14T12:32:32.950Z,16.75
2022-11-14T12:35:04.570Z,15.80
2022-11-14T12:37:35.756Z,16.00
2022-11-14T12:40:07.116Z,16.15
2022-11-14T12:42:37.070Z,15.07
2022-11-14T12:45:05.552Z,15.85
2022-11-14T12:47:33.556Z,14.43
2022-11-14T12:50:27.245Z,15.30
2022-11-14T12:52:55.435Z,13.90
2022-11-14T12:55:54.746Z,15.17
2022-11-14T12:58:36.851Z,13.68
2022-11-14T13:01:21.605Z,13.95
2022-11-14T13:04:02.869Z,15.00
2022-11-14T13:06:39.373Z,15.90
2022-11-14T13:09:28.693Z,14.95
2022-11-14T13:12:14.531Z,14.68
2022-11-14T13:15:15.153Z,14.05
2022-11-14T13:18:01.050Z,16.73
2022-11-14T13:20:49.439Z,19.30
2022-11-14T13:23:56.694Z,16.30
2022-11-14T13:26:38.600Z,14.80
2022-11-14T13:29:06.693Z,15.55
2022-11-14T13:31:48.428Z,15.00
2022-11-14T13:34:41.258Z,15.18
2022-11-14T13:37:23.844Z,14.70
2022-11-14T13:40:00.875Z,14.02
2022-11-14T13:42:42.304Z,14.10
2022-11-14T13:45:49.980Z,14.23
2022-11-14T13:48:47.633Z,14.32
2022-11-14T13:54:17.632Z,18.25
2022-11-14T13:57:00.850Z,14.10
2022-11-14T13:59:55.235Z,14.77
2022-11-14T14:03:03.877Z,16.15
2022-11-14T14:05:49.527Z,17.10
2022-11-14T14:08:33.714Z,18.95
2022-11-14T14:11:19.189Z,23.80
2022-11-14T14:13:56.293Z,25.05
2022-11-14T14:16:34.043Z,23.00
2022-11-14T14:19:12.908Z,28.02
2022-11-14T14:21:49.936Z,26.20
2022-11-14T14:24:36.855Z,27.48
2022-11-14T14:27:15.235Z,27.02
2022-11-14T14:29:51.943Z,30.83
2022-11-14T14:32:21.143Z,32.45
2022-11-14T14:34:49.147Z,30.63
2022-11-14T14:37:20.984Z,31.17
2022-11-14T14:40:00.086Z,33.40
2022-11-14T14:42:34.956Z,34.40
2022-11-14T14:45:04.724Z,33.97
2022-11-14T14:50:05.317Z,35.22
2022-11-14T14:52:37.874Z,37.47
2022-11-14T14:55:08.799Z,37.78
2022-11-14T14:57:36.849Z,41.83
2022-11-14T15:00:08.429Z,41.92
2022-11-14T15:02:37.302Z,44.33
2022-11-14T15:05:06.302Z,43.58
2022-11-14T15:07:36.942Z,45.60
2022-11-14T15:10:07.748Z,45.80
2022-11-14T15:12:36.732Z,48.05
2022-11-14T15:15:05.754Z,45.22
2022-11-14T15:17:36.009Z,47.88
2022-11-14T15:20:04.656Z,48.88
2022-11-14T15:22:33.640Z,49.67
2022-11-14T15:25:20.486Z,46.90
2022-11-14T15:27:54.272Z,52.85
2022-11-14T15:30:25.802Z,52.83
2022-11-14T15:32:55.405Z,46.28
2022-11-14T15:41:18.004Z,61.45
2022-11-14T15:43:50.724Z,58.90
2022-11-14T15:46:40.435Z,57.58
2022-11-14T15:49:10.594Z,50.03
2022-11-14T15:51:43.185Z,55.45
2022-11-14T15:54:29.962Z,55.83
2022-11-14T15:57:01.609Z,55.70
2022-11-14T15:59:31.458Z,70.15
2022-11-14T16:02:05.429Z,61.25
2022-11-14T16:04:36.793Z,65.57
2022-11-14T16:07:05.341Z,57.90
2022-11-14T16:09:33.391Z,58.88
2022-11-14T16:12:02.741Z,64.40
2022-11-14T16:14:30.729Z,63.35
2022-11-14T16:16:58.684Z,59.80
2022-11-14T16:19:26.745Z,63.33
2022-11-14T16:21:54.786Z,59.90
2022-11-14T16:24:24.216Z,64.00
2022-11-14T16:26:52.362Z,57.53
2022-11-14T16:29:21.703Z,59.03
2022-11-14T16:31:51.610Z,57.15
2022-11-14T16:34:21.425Z,58.72
2022-11-14T16:36:51.534Z,53.53
2022-11-14T16:39:19.511Z,55.47
2022-11-14T16:41:47.483Z,59.03
2022-11-14T16:44:17.541Z,58.50
2022-11-14T16:46:47.339Z,60.20
2022-11-14T16:49:16.262Z,61.08
2022-11-14T16:51:49.629Z,82.35
2022-11-14T16:54:19.306Z,111.35
2022-11-14T16:56:47.536Z,82.78
2022-11-14T16:59:15.561Z,66.72
2022-11-14T17:01:43.714Z,74.57
2022-11-14T17:04:13.160Z,66.28
2022-11-14T17:06:41.170Z,79.25
2022-11-14T17:09:09.446Z,82.75
2022-11-14T17:11:37.449Z,74.00
2022-11-14T17:14:05.497Z,79.35
2022-11-14T17:16:33.548Z,80.18
2022-11-14T17:19:01.659Z,71.55
2022-11-14T17:21:31.368Z,67.93
2022-11-14T17:24:02.548Z,65.78
2022-11-14T17:26:30.687Z,67.47
2022-11-14T17:28:58.937Z,56.20
2022-11-14T17:31:27.011Z,62.20
2022-11-14T17:33:56.622Z,66.53
2022-11-14T17:38:54.576Z,67.83
2022-11-14T17:41:22.947Z,70.97
2022-11-14T17:43:54.530Z,69.97
2022-11-14T17:46:22.623Z,63.38
2022-11-14T17:48:51.045Z,65.20
2022-11-14T17:51:18.990Z,65.72
2022-11-14T17:53:46.978Z,71.13
2022-11-14T17:56:17.673Z,63.55
2022-11-14T17:58:46.274Z,62.75
2022-11-14T18:01:16.321Z,69.23
2022-11-14T18:03:44.421Z,64.70
2022-11-14T18:06:13.693Z,73.38
2022-11-14T18:08:42.128Z,64.55
2022-11-14T18:11:12.810Z,72.15
2022-11-14T18:13:42.512Z,68.72
2022-11-14T18:16:13.804Z,65.95
2022-11-14T18:18:42.017Z,77.05
2022-11-14T18:21:11.402Z,80.90
2022-11-14T18:23:39.671Z,88.00
2022-11-14T18:26:11.764Z,76.97
2022-11-14T18:28:41.752Z,72.18
2022-11-14T18:31:11.189Z,84.00
2022-11-14T18:36:11.258Z,77.43
2022-11-14T18:38:39.843Z,81.50
2022-11-14T18:41:10.427Z,68.17
2022-11-14T18:43:38.448Z,82.22
2022-11-14T18:46:09.951Z,96.47
2022-11-14T18:48:39.586Z,94.60
2022-11-14T18:51:11.097Z,94.95
2022-11-14T18:53:39.162Z,98.75
2022-11-14T18:56:08.468Z,88.63
2022-11-14T18:58:39.609Z,97.55
2022-11-14T19:01:14.022Z,118.50
2022-11-14T19:03:42.350Z,102.38
2022-11-14T19:06:12.506Z,106.95
2022-11-14T19:08:41.311Z,92.50
2022-11-14T19:11:31.763Z,104.82
2022-11-14T19:14:02.933Z,100.45
2022-11-14T19:16:32.312Z,116.97
2022-11-14T19:19:01.022Z,96.05
2022-11-14T19:21:29.780Z,105.13
2022-11-14T19:23:59.451Z,110.93
2022-11-14T19:26:28.294Z,104.82
2022-11-14T19:28:56.774Z,89.38
2022-11-14T19:31:25.133Z,116.20
2022-11-14T19:33:54.477Z,94.43
2022-11-14T19:36:58.931Z,94.38
2022-11-14T19:41:39.799Z,109.70
2022-11-14T19:44:07.900Z,98.85
2022-11-14T19:46:36.767Z,108.38
2022-11-14T19:49:07.373Z,109.22
2022-11-14T19:51:35.536Z,100.53
2022-11-14T19:54:03.796Z,99.22
2022-11-14T19:56:31.778Z,93.05
2022-11-14T19:59:02.679Z,102.60
2022-11-14T20:01:30.755Z,106.20
2022-11-14T20:04:00.308Z,104.22
2022-11-14T20:09:01.447Z,109.82
2022-11-14T20:11:30.860Z,108.32
2022-11-14T20:14:01.142Z,92.60
2022-11-14T20:16:31.440Z,99.80
2022-11-14T20:19:01.603Z,108.18
2022-11-14T20:21:32.851Z,95.82
2022-11-14T20:24:01.059Z,101.95
2022-11-14T20:26:29.140Z,107.90
2022-11-14T20:28:57.215Z,96.93
2022-11-14T20:31:27.546Z,86.03
2022-11-14T20:33:56.276Z,93.43
2022-11-14T20:36:29.460Z,97.60
2022-11-14T20:39:11.824Z,105.97
2022-11-14T20:41:39.947Z,91.55
2022-11-14T20:44:08.172Z,88.95
2022-11-14T20:46:36.445Z,85.00
2022-11-14T20:49:04.538Z,84.97
2022-11-14T20:51:33.383Z,77.20
2022-11-14T20:54:01.445Z,92.60
2022-11-14T20:56:30.968Z,80.30
2022-11-14T21:01:26.910Z,66.57
2022-11-14T21:03:57.349Z,85.85
2022-11-14T21:06:25.344Z,84.32
2022-11-14T21:08:53.343Z,81.90
2022-11-14T21:11:22.387Z,76.75
2022-11-14T21:13:57.749Z,75.63
2022-11-14T21:16:28.376Z,76.82
2022-11-14T21:18:56.854Z,78.05
2022-11-14T21:21:27.317Z,69.72
2022-11-14T21:23:56.155Z,79.38
2022-11-14T21:26:25.938Z,75.15
2022-11-14T21:28:57.189Z,77.22
2022-11-14T21:31:27.506Z,73.15
2022-11-14T21:33:57.738Z,69.03
2022-11-14T21:39:16.405Z,76.18
2022-11-14T21:41:45.537Z,65.85
2022-11-14T21:44:16.471Z,72.43
2022-11-14T21:46:47.008Z,75.47
2022-11-14T21:49:15.328Z,79.15
2022-11-14T21:51:43.341Z,82.30
2022-11-14T21:54:11.384Z,99.47
2022-11-14T21:56:39.447Z,80.38
2022-11-14T21:59:15.609Z,76.53
2022-11-14T22:02:03.997Z,79.63
2022-11-14T22:04:32.403Z,70.43
2022-11-14T22:07:02.434Z,105.43
2022-11-14T22:09:31.157Z,73.65
2022-11-14T22:11:59.741Z,94.82
2022-11-14T22:14:30.306Z,74.13
2022-11-14T22:16:58.898Z,80.70
2022-11-14T22:19:26.877Z,82.33
2022-11-14T22:21:55.173Z,103.35
2022-11-14T22:24:23.602Z,115.70
2022-11-14T22:26:51.600Z,105.30
2022-11-14T22:29:19.590Z,98.95
2022-11-14T22:31:48.883Z,132.27
2022-11-14T22:34:16.887Z,89.57
2022-11-14T22:36:44.875Z,96.15
2022-11-14T22:39:12.811Z,98.47
2022-11-14T22:41:40.830Z,92.95
2022-11-14T22:44:08.894Z,96.97
2022-11-14T22:46:36.958Z,100.55
2022-11-14T22:49:06.342Z,122.40
2022-11-14T22:51:34.292Z,109.63
2022-11-14T22:54:02.279Z,117.78
2022-11-14T22:56:30.692Z,86.85
2022-11-14T22:59:00.531Z,76.80
2022-11-14T23:01:31.043Z,88.40
2022-11-14T23:04:00.862Z,84.45
2022-11-14T23:06:32.124Z,83.50
2022-11-14T23:09:00.274Z,86.25
2022-11-14T23:11:29.540Z,95.43
2022-11-14T23:13:59.233Z,106.30
2022-11-14T23:16:28.808Z,84.78
2022-11-14T23:21:27.302Z,80.72
2022-11-14T23:23:57.874Z,79.60
2022-11-14T23:26:26.858Z,87.95
2022-11-14T23:28:55.666Z,79.30
2022-11-14T23:31:24.935Z,82.78
2022-11-14T23:33:54.931Z,81.13
2022-11-14T23:36:22.927Z,68.82
2022-11-14T23:38:53.112Z,79.47
2022-11-14T23:41:25.312Z,82.30
2022-11-14T23:43:53.461Z,79.43
2022-11-14T23:46:21.473Z,72.43
2022-11-14T23:48:50.706Z,71.00
2022-11-14T23:51:18.672Z,81.40
2022-11-14T23:53:46.798Z,79.90
2022-11-14T23:56:15.481Z,84.53
2022-11-14T23:58:44.948Z,98.20
